Pyron, Texas
Current Conditions -  °F | °C
As of 5:55 PM on Saturday 25 Oct 2014 (Local Time) from KSWW Reporting Station
Clear Clear  
Wind Chill: 85°   Ceiling: Unl
Heat Index: 85°   Visibility: 10mi
Dew Point: 46°   Wind: 9mph
Humidity: 25%   Direction: 150°SSE
Pressure: 30.12"   Gusts: NA
Location:  32.3875°N, 100.536°W
Report Text: KSWW 252255Z AUTO 15008KT 10SM CLR 29/08 A3012 RMK AO2 T02940077
Loading
Personal Weather Stations






























Interactive Weather Map
Tropical Storm Tracking
New forecast layout! Learn more

10-Day Weather Forecast

Advertisements
Track Severe Weather on mobile